Terminal Aerodrome Forecast
Issued by NWS Northern Indiana

Home | Current Version | Previous Version | Graphics & Text | Print | Product List | Glossary On
Versions: 1 2 3 4 5 6 7 8 9 10 11 12 13 14 15 16 17 18
000
FTUS43 KIWX 191120
TAFFWA
TAF
KFWA 191120Z 1912/2012 20005KT 6SM BR OVC006
      TEMPO 1912/1915 3SM BR OVC004
     FM191600 14006KT P6SM SCT015 OVC150
      TEMPO 1916/1919 3SM BR OVC015
     FM200100 10006KT 3SM -RA BR OVC020
     FM200300 09006KT 2SM -RA OVC010
     FM200500 08008KT 1SM RA BR OVC004=

USA.gov is the U.S. government's official web portal to all federal, state and local government web resources and services.